Time;durP1;ratioP1;P1;durP2;ratioP2;P2;SDS_P1;SDS_P2;PMS_P1;PMS_P2;Temp;Humidity;BMP_temperature;BMP_pressure;BME280_temperature;BME280_humidity;BME280_pressure;Samples;Min_cycle;Max_cycle;Signal;HPM_P1;HPM_P2
2021/05/09 00:02:23;;;;;;;31.25;20.15;;;;;;;;;;5099766;28;20117;-80
2021/05/09 00:04:49;;;;;;;30.33;18.80;;;;;;;;;;5099791;28;20046;-80
2021/05/09 00:07:15;;;;;;;30.52;18.30;;;;;;;;;;5099501;28;20044;-80
2021/05/09 00:09:41;;;;;;;31.65;17.95;;;;;;;;;;5098390;28;20331;-79
2021/05/09 00:12:08;;;;;;;30.75;17.48;;;;;;;;;;5099347;28;20103;-80
2021/05/09 00:14:35;;;;;;;31.17;19.38;;;;;;;;;;5099736;28;20024;-79
2021/05/09 00:17:01;;;;;;;32.05;19.27;;;;;;;;;;5099773;28;20088;-79
2021/05/09 00:19:27;;;;;;;33.80;19.77;;;;;;;;;;5099399;28;20398;-79
2021/05/09 00:21:53;;;;;;;29.67;19.02;;;;;;;;;;5099660;28;20032;-80
2021/05/09 00:24:19;;;;;;;28.00;18.77;;;;;;;;;;5099526;28;20025;-80
2021/05/09 00:26:45;;;;;;;32.20;20.85;;;;;;;;;;5098326;28;20024;-80
2021/05/09 00:29:11;;;;;;;33.13;20.95;;;;;;;;;;5099459;28;20355;-80
2021/05/09 00:31:37;;;;;;;32.55;18.52;;;;;;;;;;5099422;28;20349;-80
2021/05/09 00:34:03;;;;;;;27.95;17.63;;;;;;;;;;5098445;28;20032;-81
2021/05/09 00:36:30;;;;;;;25.45;16.92;;;;;;;;;;5099247;28;20065;-79
2021/05/09 00:38:56;;;;;;;27.77;16.00;;;;;;;;;;5099042;28;20024;-79
2021/05/09 00:41:22;;;;;;;25.85;15.98;;;;;;;;;;5098988;28;20110;-79
2021/05/09 00:43:48;;;;;;;24.58;15.20;;;;;;;;;;5097930;28;20024;-80
2021/05/09 00:46:14;;;;;;;27.15;16.52;;;;;;;;;;5099098;28;20031;-80
2021/05/09 00:48:40;;;;;;;27.88;17.10;;;;;;;;;;5097800;28;20020;-80
2021/05/09 00:51:06;;;;;;;26.42;15.68;;;;;;;;;;5098069;28;20028;-80
2021/05/09 00:53:34;;;;;;;23.70;15.95;;;;;;;;;;5098846;28;20020;-80
2021/05/09 00:56:02;;;;;;;26.27;15.70;;;;;;;;;;5098010;28;20024;-80
2021/05/09 00:58:28;;;;;;;22.65;15.35;;;;;;;;;;5098902;28;20047;-80
2021/05/09 01:00:55;;;;;;;27.33;15.70;;;;;;;;;;5098443;28;20295;-80
2021/05/09 01:03:26;;;;;;;25.00;16.33;;;;;;;;;;5098445;28;20020;-79
2021/05/09 01:05:53;;;;;;;28.75;17.17;;;;;;;;;;5098751;28;20024;-80
2021/05/09 01:08:19;;;;;;;38.17;18.92;;;;;;;;;;5098402;28;20032;-79
2021/05/09 01:10:45;;;;;;;54.03;25.08;;;;;;;;;;5098530;28;20036;-79
2021/05/09 01:13:11;;;;;;;49.95;24.65;;;;;;;;;;5098542;28;20043;-79
2021/05/09 01:15:37;;;;;;;45.92;24.17;;;;;;;;;;5098287;28;20462;-79
2021/05/09 01:18:04;;;;;;;43.00;23.02;;;;;;;;;;5098521;28;20035;-79
2021/05/09 01:20:30;;;;;;;54.80;27.65;;;;;;;;;;5098260;28;20099;-79
2021/05/09 01:22:57;;;;;;;54.03;26.17;;;;;;;;;;5098270;28;20024;-79
2021/05/09 01:25:23;;;;;;;55.60;25.98;;;;;;;;;;5098053;28;20026;-79
2021/05/09 01:27:49;;;;;;;49.17;24.25;;;;;;;;;;5098304;28;20050;-79
2021/05/09 01:30:15;;;;;;;41.25;23.45;;;;;;;;;;5096924;28;20386;-79
2021/05/09 01:32:41;;;;;;;46.25;22.38;;;;;;;;;;5098315;28;20012;-80
2021/05/09 01:35:07;;;;;;;41.80;22.23;;;;;;;;;;5096865;28;20016;-79
2021/05/09 01:37:33;;;;;;;38.13;21.65;;;;;;;;;;5098000;28;20032;-79
2021/05/09 01:39:59;;;;;;;37.47;22.25;;;;;;;;;;5097924;28;20028;-79
2021/05/09 01:42:25;;;;;;;39.55;21.33;;;;;;;;;;5097115;28;20433;-79
2021/05/09 01:44:53;;;;;;;36.92;20.80;;;;;;;;;;5098063;28;20023;-80
2021/05/09 01:47:19;;;;;;;35.35;21.20;;;;;;;;;;5097726;28;20028;-79
2021/05/09 01:49:45;;;;;;;31.85;20.42;;;;;;;;;;5097761;28;20350;-79
2021/05/09 01:52:11;;;;;;;34.25;21.27;;;;;;;;;;5097870;28;20066;-79
2021/05/09 01:54:37;;;;;;;28.83;19.92;;;;;;;;;;5097285;28;20023;-80
2021/05/09 01:57:03;;;;;;;33.95;19.98;;;;;;;;;;5097726;28;20024;-80
2021/05/09 01:59:29;;;;;;;32.50;20.52;;;;;;;;;;5097334;28;20024;-80
2021/05/09 02:01:56;;;;;;;34.00;20.88;;;;;;;;;;5097520;28;20069;-80
2021/05/09 02:04:22;;;;;;;40.10;22.45;;;;;;;;;;5097532;28;20034;-80
2021/05/09 02:06:48;;;;;;;35.17;21.55;;;;;;;;;;5097199;28;20377;-80
2021/05/09 02:09:14;;;;;;;35.08;20.27;;;;;;;;;;5096019;28;20028;-80
2021/05/09 02:11:40;;;;;;;34.17;21.15;;;;;;;;;;5096005;28;20054;-80
2021/05/09 02:14:08;;;;;;;43.28;23.85;;;;;;;;;;5096377;28;20020;-80
2021/05/09 02:16:34;;;;;;;42.72;25.35;;;;;;;;;;5097209;28;20150;-80
2021/05/09 02:19:00;;;;;;;40.83;23.60;;;;;;;;;;5097178;28;20027;-79
2021/05/09 02:21:26;;;;;;;34.45;20.30;;;;;;;;;;5097228;28;20318;-80
2021/05/09 02:23:52;;;;;;;31.13;18.95;;;;;;;;;;5097290;28;20464;-80
2021/05/09 02:26:18;;;;;;;32.60;17.05;;;;;;;;;;5097154;28;20455;-80
2021/05/09 02:28:44;;;;;;;28.20;16.45;;;;;;;;;;5097428;28;20135;-79
2021/05/09 02:31:10;;;;;;;30.23;15.82;;;;;;;;;;5097283;28;20409;-80
2021/05/09 02:33:36;;;;;;;24.15;14.20;;;;;;;;;;5097149;28;20460;-80
2021/05/09 02:36:03;;;;;;;27.70;14.68;;;;;;;;;;5097324;28;20295;-80
2021/05/09 02:38:29;;;;;;;29.50;15.82;;;;;;;;;;5097143;28;20036;-80
2021/05/09 02:40:55;;;;;;;27.80;14.45;;;;;;;;;;5096042;28;20028;-80
2021/05/09 02:43:21;;;;;;;29.30;14.68;;;;;;;;;;5097088;28;20102;-79
2021/05/09 02:45:47;;;;;;;28.50;14.73;;;;;;;;;;5097149;28;20027;-79
2021/05/09 02:48:13;;;;;;;28.15;17.10;;;;;;;;;;5096962;28;20031;-79
2021/05/09 02:50:39;;;;;;;33.92;18.58;;;;;;;;;;5097038;28;20032;-79
2021/05/09 02:53:05;;;;;;;35.60;18.13;;;;;;;;;;5097100;28;20142;-79
2021/05/09 02:55:31;;;;;;;32.33;16.63;;;;;;;;;;5096898;28;20415;-80
2021/05/09 02:57:58;;;;;;;29.60;15.70;;;;;;;;;;5096975;28;20016;-80
2021/05/09 03:00:24;;;;;;;27.55;14.48;;;;;;;;;;5096913;28;20318;-80
2021/05/09 03:02:50;;;;;;;29.17;15.88;;;;;;;;;;5096956;28;20099;-80
2021/05/09 03:05:16;;;;;;;29.13;16.55;;;;;;;;;;5096945;28;20032;-80
2021/05/09 03:07:42;;;;;;;29.45;16.58;;;;;;;;;;5096711;28;20046;-80
2021/05/09 03:10:08;;;;;;;31.05;16.20;;;;;;;;;;5096842;28;20028;-80
2021/05/09 03:12:34;;;;;;;37.28;17.17;;;;;;;;;;5096749;28;20020;-79
2021/05/09 03:15:00;;;;;;;32.67;17.08;;;;;;;;;;5096983;28;20299;-78
2021/05/09 03:17:26;;;;;;;35.17;16.52;;;;;;;;;;5096743;28;20028;-78
2021/05/09 03:19:52;;;;;;;34.05;18.10;;;;;;;;;;5096780;28;20032;-78
2021/05/09 03:22:18;;;;;;;26.85;15.55;;;;;;;;;;5096713;28;20066;-78
2021/05/09 03:24:44;;;;;;;27.02;14.63;;;;;;;;;;5097757;28;20052;-78
2021/05/09 03:27:10;;;;;;;26.85;14.25;;;;;;;;;;5100533;28;20020;-78
2021/05/09 03:29:36;;;;;;;23.00;12.75;;;;;;;;;;5100566;28;20024;-79
2021/05/09 03:32:02;;;;;;;24.30;13.57;;;;;;;;;;5100574;28;20024;-79
2021/05/09 03:34:29;;;;;;;26.02;13.20;;;;;;;;;;5100598;28;20047;-79
2021/05/09 03:36:55;;;;;;;24.90;12.38;;;;;;;;;;5100256;28;20031;-81
2021/05/09 03:39:21;;;;;;;28.60;12.52;;;;;;;;;;5100292;28;20036;-80
2021/05/09 03:41:47;;;;;;;24.38;11.90;;;;;;;;;;5100250;28;20326;-82
2021/05/09 03:44:13;;;;;;;25.25;12.65;;;;;;;;;;5086280;28;20067;-79
2021/05/09 03:46:39;;;;;;;23.27;11.90;;;;;;;;;;5099286;28;20032;-79
2021/05/09 03:49:05;;;;;;;22.20;11.63;;;;;;;;;;5096652;28;20126;-79
2021/05/09 03:51:32;;;;;;;24.48;12.90;;;;;;;;;;5100170;28;20023;-79
2021/05/09 03:53:58;;;;;;;28.13;14.63;;;;;;;;;;5099849;28;20027;-81
2021/05/09 03:56:24;;;;;;;57.58;29.92;;;;;;;;;;5099812;28;20020;-81
2021/05/09 03:58:50;;;;;;;111.38;55.20;;;;;;;;;;5099973;28;20027;-81
2021/05/09 04:01:16;;;;;;;83.93;43.05;;;;;;;;;;5099933;28;20016;-80
2021/05/09 04:03:42;;;;;;;56.05;32.45;;;;;;;;;;5099778;28;20099;-81
2021/05/09 04:06:08;;;;;;;41.60;22.77;;;;;;;;;;5099777;28;20031;-79
2021/05/09 04:08:34;;;;;;;36.97;19.17;;;;;;;;;;5099899;28;20020;-79
2021/05/09 04:11:01;;;;;;;32.17;16.85;;;;;;;;;;5099689;28;20111;-80
2021/05/09 04:13:27;;;;;;;29.67;15.77;;;;;;;;;;5099690;28;20322;-79
2021/05/09 04:15:53;;;;;;;27.83;15.15;;;;;;;;;;5099573;28;20307;-80
2021/05/09 04:18:19;;;;;;;31.83;17.40;;;;;;;;;;5099455;28;20448;-80
2021/05/09 04:20:45;;;;;;;28.92;17.38;;;;;;;;;;5099749;28;20059;-79
2021/05/09 04:23:13;;;;;;;31.08;16.70;;;;;;;;;;5099392;28;20042;-79
2021/05/09 04:25:40;;;;;;;31.13;17.13;;;;;;;;;;5098305;28;20369;-79
2021/05/09 04:28:06;;;;;;;32.10;16.92;;;;;;;;;;5099280;28;20099;-79
2021/05/09 04:30:33;;;;;;;33.08;17.77;;;;;;;;;;5099202;28;20081;-80
2021/05/09 04:33:03;;;;;;;33.95;17.58;;;;;;;;;;5099436;28;20016;-79
2021/05/09 04:35:30;;;;;;;29.52;16.73;;;;;;;;;;5098267;28;20032;-79
2021/05/09 04:37:56;;;;;;;28.08;16.27;;;;;;;;;;5098429;28;20314;-79
2021/05/09 04:40:22;;;;;;;27.85;16.75;;;;;;;;;;5099065;28;20418;-79
2021/05/09 04:42:48;;;;;;;32.13;16.73;;;;;;;;;;5098907;28;20325;-79
2021/05/09 04:45:15;;;;;;;32.33;16.65;;;;;;;;;;5099159;28;20027;-79
2021/05/09 04:47:42;;;;;;;28.45;15.70;;;;;;;;;;5098824;28;20402;-79
2021/05/09 04:50:08;;;;;;;27.30;15.55;;;;;;;;;;5098813;28;20032;-79
2021/05/09 04:52:34;;;;;;;28.42;16.30;;;;;;;;;;5098729;28;20394;-80
2021/05/09 04:55:00;;;;;;;33.95;16.33;;;;;;;;;;5098945;28;20099;-80
2021/05/09 04:57:26;;;;;;;27.70;15.75;;;;;;;;;;5098715;28;20024;-80
2021/05/09 04:59:53;;;;;;;31.67;15.85;;;;;;;;;;5098967;28;20020;-80
2021/05/09 05:02:19;;;;;;;32.30;15.98;;;;;;;;;;5098776;28;20106;-79
2021/05/09 05:04:45;;;;;;;31.20;15.75;;;;;;;;;;5098600;28;20039;-79
2021/05/09 05:07:11;;;;;;;30.08;15.13;;;;;;;;;;5098381;28;20043;-79
2021/05/09 05:09:39;;;;;;;27.90;15.55;;;;;;;;;;5098239;28;20060;-79
2021/05/09 05:12:05;;;;;;;30.42;16.60;;;;;;;;;;5098458;28;20354;-79
2021/05/09 05:14:32;;;;;;;28.17;16.30;;;;;;;;;;5098688;28;20024;-79
2021/05/09 05:16:58;;;;;;;30.30;16.90;;;;;;;;;;5098455;28;20027;-79
2021/05/09 05:19:24;;;;;;;30.85;16.75;;;;;;;;;;5098400;28;20027;-79
2021/05/09 05:21:50;;;;;;;32.72;17.17;;;;;;;;;;5098278;28;20077;-78
2021/05/09 05:24:17;;;;;;;32.13;16.67;;;;;;;;;;5098302;28;20054;-79
2021/05/09 05:26:43;;;;;;;33.13;18.17;;;;;;;;;;5098176;28;20041;-79
2021/05/09 05:29:09;;;;;;;32.47;18.25;;;;;;;;;;5098340;28;20028;-78
2021/05/09 05:31:35;;;;;;;31.27;18.88;;;;;;;;;;5097872;28;20402;-79
2021/05/09 05:34:02;;;;;;;31.80;17.35;;;;;;;;;;5098215;28;20047;-79
2021/05/09 05:36:31;;;;;;;31.80;18.67;;;;;;;;;;5097927;28;20065;-79
2021/05/09 05:39:00;;;;;;;30.67;17.95;;;;;;;;;;5098012;28;20020;-79
2021/05/09 05:41:26;;;;;;;34.50;19.30;;;;;;;;;;5097006;28;20044;-78
2021/05/09 05:43:53;;;;;;;30.30;16.38;;;;;;;;;;5098241;28;20063;-79
2021/05/09 05:46:19;;;;;;;28.08;15.98;;;;;;;;;;5097722;28;20070;-79
2021/05/09 05:48:45;;;;;;;25.63;15.30;;;;;;;;;;5097791;28;20031;-79
2021/05/09 05:51:11;;;;;;;33.20;16.67;;;;;;;;;;5097831;28;20020;-79
2021/05/09 05:53:37;;;;;;;30.05;16.52;;;;;;;;;;5096986;28;20032;-79
2021/05/09 05:56:03;;;;;;;27.48;16.75;;;;;;;;;;5097784;28;20020;-79
2021/05/09 05:58:29;;;;;;;27.00;15.20;;;;;;;;;;5097541;28;20020;-79
2021/05/09 06:00:55;;;;;;;27.23;15.30;;;;;;;;;;5094894;28;20154;-79
2021/05/09 06:03:23;;;;;;;24.75;14.35;;;;;;;;;;5090753;28;20053;-78
2021/05/09 06:05:49;;;;;;;25.90;14.35;;;;;;;;;;5078315;28;20029;-78
2021/05/09 06:08:18;;;;;;;22.27;12.63;;;;;;;;;;5077086;28;20057;-79
2021/05/09 06:10:45;;;;;;;23.27;13.35;;;;;;;;;;5076022;28;20322;-79
2021/05/09 06:13:11;;;;;;;23.98;13.23;;;;;;;;;;5077375;28;20020;-79
2021/05/09 06:15:38;;;;;;;21.42;12.73;;;;;;;;;;5076262;28;20036;-79
2021/05/09 06:18:04;;;;;;;24.00;12.15;;;;;;;;;;5077282;28;20025;-78
2021/05/09 06:20:30;;;;;;;21.13;11.63;;;;;;;;;;5076547;28;20349;-79
2021/05/09 06:22:57;;;;;;;19.38;10.63;;;;;;;;;;5076278;28;20032;-81
2021/05/09 06:25:24;;;;;;;16.60;10.18;;;;;;;;;;5077079;28;20055;-79
2021/05/09 06:27:50;;;;;;;20.35;9.63;;;;;;;;;;5077018;28;20029;-78
2021/05/09 06:30:16;;;;;;;19.95;10.32;;;;;;;;;;5076113;28;20430;-78
2021/05/09 06:32:42;;;;;;;15.50;8.60;;;;;;;;;;5076933;28;20017;-79
2021/05/09 06:35:08;;;;;;;17.00;8.40;;;;;;;;;;5076670;28;20020;-79
2021/05/09 06:37:35;;;;;;;20.17;7.65;;;;;;;;;;5077007;28;20029;-79
2021/05/09 06:40:01;;;;;;;15.10;6.38;;;;;;;;;;5076878;28;20040;-79
2021/05/09 06:42:28;;;;;;;15.48;7.25;;;;;;;;;;5076852;28;20411;-79
2021/05/09 06:44:59;;;;;;;13.75;6.30;;;;;;;;;;5076790;28;20433;-79
2021/05/09 06:47:25;;;;;;;9.83;5.13;;;;;;;;;;5077064;28;20028;-79
2021/05/09 06:49:51;;;;;;;30.50;16.73;;;;;;;;;;5076714;28;20028;-79
2021/05/09 06:52:17;;;;;;;11.77;5.90;;;;;;;;;;5076942;28;20056;-79
2021/05/09 06:54:43;;;;;;;12.55;5.95;;;;;;;;;;5076809;28;20032;-78
2021/05/09 06:57:09;;;;;;;13.18;6.30;;;;;;;;;;5075787;28;20123;-80
2021/05/09 06:59:35;;;;;;;14.57;6.88;;;;;;;;;;5076516;28;20411;-80
2021/05/09 07:02:01;;;;;;;15.32;5.35;;;;;;;;;;5080920;28;20028;-79
2021/05/09 07:04:27;;;;;;;13.43;6.40;;;;;;;;;;5080793;28;20024;-80
2021/05/09 07:06:53;;;;;;;40.58;24.02;;;;;;;;;;5079508;28;20397;-79
2021/05/09 07:09:19;;;;;;;38.35;23.92;;;;;;;;;;5079453;28;20308;-80
2021/05/09 07:11:45;;;;;;;18.33;9.75;;;;;;;;;;5080657;28;20104;-80
2021/05/09 07:14:12;;;;;;;27.10;16.58;;;;;;;;;;5080527;28;20025;-79
2021/05/09 07:16:38;;;;;;;19.67;11.15;;;;;;;;;;5080318;28;20031;-79
2021/05/09 07:19:06;;;;;;;31.83;18.33;;;;;;;;;;5080469;28;20032;-79
2021/05/09 07:21:38;;;;;;;22.42;12.43;;;;;;;;;;5080456;28;20032;-79
2021/05/09 07:24:04;;;;;;;29.42;16.45;;;;;;;;;;5079659;28;20095;-79
2021/05/09 07:26:30;;;;;;;28.83;15.57;;;;;;;;;;5080169;28;20066;-78
2021/05/09 07:28:56;;;;;;;19.55;11.25;;;;;;;;;;5079903;28;20024;-79
2021/05/09 07:31:22;;;;;;;16.90;9.60;;;;;;;;;;5079176;28;20060;-78
2021/05/09 07:33:48;;;;;;;18.73;10.60;;;;;;;;;;5080293;28;20021;-78
2021/05/09 07:36:14;;;;;;;19.35;10.15;;;;;;;;;;5080172;28;20028;-78
2021/05/09 07:38:40;;;;;;;23.75;12.13;;;;;;;;;;5080107;28;20024;-78
2021/05/09 07:41:06;;;;;;;29.60;13.75;;;;;;;;;;5079947;28;20028;-79
2021/05/09 07:43:33;;;;;;;20.67;10.38;;;;;;;;;;5080112;28;20028;-78
2021/05/09 07:45:59;;;;;;;14.80;8.10;;;;;;;;;;5079990;28;20020;-78
2021/05/09 07:48:25;;;;;;;11.57;7.55;;;;;;;;;;5079902;28;20429;-78
2021/05/09 07:50:52;;;;;;;13.40;6.38;;;;;;;;;;5079833;28;20035;-78
2021/05/09 07:53:18;;;;;;;15.38;7.93;;;;;;;;;;5079699;28;20020;-76
2021/05/09 07:55:44;;;;;;;12.93;6.72;;;;;;;;;;5079751;28;20017;-76
2021/05/09 07:58:17;;;;;;;68.80;41.25;;;;;;;;;;5079896;28;20067;-81
2021/05/09 08:00:44;;;;;;;12.93;6.93;;;;;;;;;;5079777;28;20292;-80
2021/05/09 08:03:10;;;;;;;14.30;7.03;;;;;;;;;;5079613;28;20303;-79
2021/05/09 08:05:36;;;;;;;15.85;8.52;;;;;;;;;;5079396;28;20399;-78
2021/05/09 08:08:02;;;;;;;18.63;10.85;;;;;;;;;;5079121;28;20076;-78
2021/05/09 08:10:31;;;;;;;13.80;7.03;;;;;;;;;;5078930;28;20028;-78
2021/05/09 08:12:57;;;;;;;17.73;7.47;;;;;;;;;;5077789;28;20037;-78
2021/05/09 08:15:23;;;;;;;16.25;8.13;;;;;;;;;;5078420;28;20418;-79
2021/05/09 08:17:50;;;;;;;17.92;8.68;;;;;;;;;;5079247;28;20098;-78
2021/05/09 08:20:16;;;;;;;18.02;9.20;;;;;;;;;;5079116;28;20107;-79
2021/05/09 08:22:44;;;;;;;20.08;10.52;;;;;;;;;;5079252;28;20021;-79
2021/05/09 08:25:10;;;;;;;20.33;9.25;;;;;;;;;;5078048;28;20480;-81
2021/05/09 08:27:36;;;;;;;17.00;8.88;;;;;;;;;;5079398;28;20052;-81
2021/05/09 08:30:03;;;;;;;17.85;9.05;;;;;;;;;;5078999;28;20020;-81
2021/05/09 08:32:29;;;;;;;16.40;7.80;;;;;;;;;;5079094;28;20103;-81
2021/05/09 08:34:57;;;;;;;13.07;6.53;;;;;;;;;;5079074;28;20079;-81
2021/05/09 08:37:24;;;;;;;23.67;10.15;;;;;;;;;;5079030;28;20112;-81
2021/05/09 08:39:50;;;;;;;12.75;7.47;;;;;;;;;;5078945;28;20061;-81
2021/05/09 08:42:17;;;;;;;16.58;9.45;;;;;;;;;;5077790;28;20040;-79
2021/05/09 08:44:46;;;;;;;21.48;11.90;;;;;;;;;;5079025;28;20146;-79
2021/05/09 08:47:14;;;;;;;13.57;8.50;;;;;;;;;;5077611;28;20410;-79
2021/05/09 08:49:41;;;;;;;28.65;18.45;;;;;;;;;;5078708;28;20327;-79
2021/05/09 08:52:09;;;;;;;70.70;47.30;;;;;;;;;;5078630;28;20020;-79
2021/05/09 08:54:35;;;;;;;20.83;13.07;;;;;;;;;;5078621;28;20027;-79
2021/05/09 08:57:03;;;;;;;17.13;9.15;;;;;;;;;;5078777;28;20018;-80
2021/05/09 08:59:29;;;;;;;27.17;15.65;;;;;;;;;;5078741;28;20028;-80
2021/05/09 09:01:56;;;;;;;11.88;5.85;;;;;;;;;;5078598;28;20024;-80
2021/05/09 09:04:22;;;;;;;14.50;8.82;;;;;;;;;;5078284;28;20078;-80
2021/05/09 09:06:48;;;;;;;18.98;11.27;;;;;;;;;;5078148;28;20067;-79
2021/05/09 09:09:33;;;;;;;14.38;9.18;;;;;;;;;;5078172;28;20053;-79
2021/05/09 09:12:00;;;;;;;12.65;8.05;;;;;;;;;;5078433;28;20027;-80
2021/05/09 09:14:27;;;;;;;17.10;8.93;;;;;;;;;;5078241;28;20021;-80
2021/05/09 09:17:13;;;;;;;15.15;8.70;;;;;;;;;;5077912;28;20016;-80
2021/05/09 09:19:57;;;;;;;10.35;6.60;;;;;;;;;;5078058;28;20035;-80
2021/05/09 09:22:23;;;;;;;23.80;15.45;;;;;;;;;;5077648;28;20016;-79
2021/05/09 09:25:16;;;;;;;19.77;12.95;;;;;;;;;;5077852;28;20025;-80
2021/05/09 09:27:42;;;;;;;13.35;8.88;;;;;;;;;;5076787;28;20362;-79
2021/05/09 09:30:09;;;;;;;6.78;3.65;;;;;;;;;;5077893;28;20024;-79
2021/05/09 09:32:35;;;;;;;6.38;3.35;;;;;;;;;;5077118;28;20037;-79
2021/05/09 09:35:01;;;;;;;3.88;2.22;;;;;;;;;;5077769;28;20040;-79
2021/05/09 09:37:35;;;;;;;7.78;3.63;;;;;;;;;;5078080;28;20133;-82
2021/05/09 09:40:03;;;;;;;4.57;2.60;;;;;;;;;;5077361;28;20040;-79
2021/05/09 09:42:36;;;;;;;7.95;3.20;;;;;;;;;;5082653;28;20028;-78
2021/05/09 09:45:19;;;;;;;3.90;2.33;;;;;;;;;;5085268;28;20025;-79
2021/05/09 09:47:55;;;;;;;5.45;2.60;;;;;;;;;;5085598;28;20021;-79
2021/05/09 09:50:41;;;;;;;4.13;2.78;;;;;;;;;;5085263;28;20013;-79
2021/05/09 09:53:25;;;;;;;4.60;2.22;;;;;;;;;;5085973;28;20024;-79
2021/05/09 09:56:10;;;;;;;6.80;2.92;;;;;;;;;;5101203;28;20031;-78
2021/05/09 09:58:39;;;;;;;4.85;2.85;;;;;;;;;;5117996;28;20417;-79
2021/05/09 10:01:05;;;;;;;4.38;2.38;;;;;;;;;;5117856;28;20031;-79
2021/05/09 10:03:32;;;;;;;4.30;2.45;;;;;;;;;;5106079;28;20314;-79
2021/05/09 10:05:59;;;;;;;6.25;2.15;;;;;;;;;;5085978;28;20032;-78
2021/05/09 10:08:26;;;;;;;5.03;1.88;;;;;;;;;;5086720;28;20216;-79
2021/05/09 10:10:52;;;;;;;4.57;2.90;;;;;;;;;;5084060;28;20032;-79
2021/05/09 10:13:20;;;;;;;4.00;2.10;;;;;;;;;;5085811;28;20036;-79
2021/05/09 10:15:46;;;;;;;3.40;2.00;;;;;;;;;;5086917;28;20101;-79
2021/05/09 10:18:13;;;;;;;4.85;3.05;;;;;;;;;;5084806;28;20391;-79
2021/05/09 10:20:40;;;;;;;4.38;1.83;;;;;;;;;;5090662;28;20422;-80
2021/05/09 10:23:07;;;;;;;3.85;1.98;;;;;;;;;;5097592;28;20102;-79
2021/05/09 10:25:45;;;;;;;5.70;3.08;;;;;;;;;;5097231;28;20020;-80
2021/05/09 10:28:11;;;;;;;5.68;3.20;;;;;;;;;;5097236;28;20039;-78
2021/05/09 10:30:54;;;;;;;9.35;5.13;;;;;;;;;;5092417;28;20028;-81
2021/05/09 10:33:39;;;;;;;8.05;4.93;;;;;;;;;;5076810;28;20020;-80
2021/05/09 10:36:06;;;;;;;3.55;2.40;;;;;;;;;;5076492;28;20021;-80
2021/05/09 10:38:51;;;;;;;14.85;6.65;;;;;;;;;;5076938;28;20036;-80
2021/05/09 10:41:18;;;;;;;5.45;3.50;;;;;;;;;;5087359;28;20028;-80
2021/05/09 10:43:44;;;;;;;6.07;3.03;;;;;;;;;;5075689;28;20024;-80
2021/05/09 10:46:11;;;;;;;8.98;3.85;;;;;;;;;;5075798;28;20024;-80
2021/05/09 10:48:37;;;;;;;4.30;2.20;;;;;;;;;;5077056;28;20035;-80
2021/05/09 10:51:03;;;;;;;6.95;3.95;;;;;;;;;;5076882;28;20021;-80
2021/05/09 10:53:36;;;;;;;5.60;2.72;;;;;;;;;;5076850;28;20028;-80
2021/05/09 10:56:22;;;;;;;6.70;4.63;;;;;;;;;;5076965;28;20322;-80
2021/05/09 10:58:48;;;;;;;5.38;3.92;;;;;;;;;;5018240;28;20050;-80
2021/05/09 11:01:20;;;;;;;8.45;5.18;;;;;;;;;;5034793;28;20037;-81
2021/05/09 11:03:46;;;;;;;6.75;3.28;;;;;;;;;;5034848;28;20113;-80
2021/05/09 11:06:14;;;;;;;5.45;4.05;;;;;;;;;;5034540;28;20443;-80
2021/05/09 11:08:43;;;;;;;3.97;2.33;;;;;;;;;;5034909;28;20041;-80
2021/05/09 11:11:12;;;;;;;8.30;5.20;;;;;;;;;;5017739;28;20041;-79
2021/05/09 11:14:04;;;;;;;7.65;5.10;;;;;;;;;;5034865;28;20029;-80
2021/05/09 11:16:31;;;;;;;9.50;5.88;;;;;;;;;;5017821;28;20456;-80
2021/05/09 11:19:01;;;;;;;14.50;6.63;;;;;;;;;;5034751;28;20044;-80
2021/05/09 11:21:30;;;;;;;19.08;9.23;;;;;;;;;;5034723;28;20021;-80
2021/05/09 11:23:57;;;;;;;8.23;5.97;;;;;;;;;;5017873;28;20038;-80
2021/05/09 11:26:23;;;;;;;14.77;8.38;;;;;;;;;;5034512;28;20017;-80
2021/05/09 11:29:08;;;;;;;8.10;5.75;;;;;;;;;;5018076;28;20030;-80
2021/05/09 11:31:35;;;;;;;12.25;7.22;;;;;;;;;;5034725;28;20104;-80
2021/05/09 11:34:02;;;;;;;24.13;17.05;;;;;;;;;;5034504;28;20026;-80
2021/05/09 11:36:28;;;;;;;32.10;14.52;;;;;;;;;;5059932;28;20043;-80
2021/05/09 11:39:13;;;;;;;31.50;19.25;;;;;;;;;;5076650;28;20055;-80
2021/05/09 11:41:59;;;;;;;31.88;21.00;;;;;;;;;;5076328;28;20052;-80
2021/05/09 11:44:26;;;;;;;41.40;24.33;;;;;;;;;;5076503;28;20153;-80
2021/05/09 11:46:52;;;;;;;31.27;19.88;;;;;;;;;;5078829;28;20024;-80
2021/05/09 11:49:33;;;;;;;77.28;44.83;;;;;;;;;;5079922;28;20033;-80
2021/05/09 11:52:06;;;;;;;20.85;11.13;;;;;;;;;;5079973;28;20040;-79
2021/05/09 11:54:35;;;;;;;14.40;8.70;;;;;;;;;;5079891;28;20036;-80
2021/05/09 11:57:02;;;;;;;29.67;13.02;;;;;;;;;;5078913;28;20031;-80
2021/05/09 11:59:36;;;;;;;18.80;9.73;;;;;;;;;;5079786;28;20031;-80
2021/05/09 12:02:22;;;;;;;13.50;7.80;;;;;;;;;;5079566;28;20111;-80
2021/05/09 12:05:03;;;;;;;12.40;7.15;;;;;;;;;;5078223;28;20021;-80
2021/05/09 12:07:30;;;;;;;8.35;5.22;;;;;;;;;;5078967;28;20048;-80
2021/05/09 12:10:00;;;;;;;7.45;4.85;;;;;;;;;;5079578;28;20078;-80
2021/05/09 12:12:28;;;;;;;8.15;4.53;;;;;;;;;;5078633;28;20119;-80
2021/05/09 12:14:54;;;;;;;7.43;4.10;;;;;;;;;;5079394;28;20020;-80
2021/05/09 12:17:21;;;;;;;8.75;5.38;;;;;;;;;;5079456;28;20021;-81
2021/05/09 12:19:47;;;;;;;10.63;4.78;;;;;;;;;;5078287;28;20353;-80
2021/05/09 12:22:13;;;;;;;6.78;4.40;;;;;;;;;;5078206;28;20439;-80
2021/05/09 12:24:47;;;;;;;10.75;5.07;;;;;;;;;;5078932;28;20024;-80
2021/05/09 12:27:13;;;;;;;8.52;3.38;;;;;;;;;;5078447;28;20423;-80
2021/05/09 12:29:58;;;;;;;7.05;3.58;;;;;;;;;;5078018;28;20121;-80
2021/05/09 12:32:29;;;;;;;10.18;2.60;;;;;;;;;;5079075;28;20084;-80
2021/05/09 12:35:03;;;;;;;4.32;3.42;;;;;;;;;;5079070;28;20057;-82
2021/05/09 12:37:34;;;;;;;7.57;4.10;;;;;;;;;;5079345;28;20039;-80
2021/05/09 12:40:20;;;;;;;4.43;2.65;;;;;;;;;;5077904;28;20060;-80
2021/05/09 12:42:53;;;;;;;3.40;2.00;;;;;;;;;;5078692;28;20028;-80
2021/05/09 12:45:27;;;;;;;3.55;2.30;;;;;;;;;;5078877;28;20051;-80
2021/05/09 12:48:07;;;;;;;3.78;2.03;;;;;;;;;;5078659;28;20036;-80
2021/05/09 12:50:49;;;;;;;4.93;2.78;;;;;;;;;;5077909;28;20063;-80
2021/05/09 12:53:16;;;;;;;3.50;2.35;;;;;;;;;;5078835;28;20051;-80
2021/05/09 12:55:42;;;;;;;5.25;3.53;;;;;;;;;;5078681;28;20016;-80
2021/05/09 12:58:11;;;;;;;4.53;3.38;;;;;;;;;;5077800;28;20067;-80
2021/05/09 13:00:38;;;;;;;2.95;1.73;;;;;;;;;;5078428;28;20410;-80
2021/05/09 13:03:04;;;;;;;3.50;2.53;;;;;;;;;;5078474;28;20390;-80
2021/05/09 13:05:30;;;;;;;5.57;2.63;;;;;;;;;;5077945;28;20033;-80
2021/05/09 13:07:56;;;;;;;6.10;2.88;;;;;;;;;;5078249;28;20052;-80
2021/05/09 13:10:23;;;;;;;3.35;1.70;;;;;;;;;;5078252;28;20025;-80
2021/05/09 13:12:54;;;;;;;3.25;2.10;;;;;;;;;;5078376;28;20136;-80
2021/05/09 13:15:20;;;;;;;4.43;2.70;;;;;;;;;;5078162;28;20024;-80
2021/05/09 13:17:46;;;;;;;4.47;2.22;;;;;;;;;;5078308;28;20020;-80
2021/05/09 13:20:13;;;;;;;4.53;2.00;;;;;;;;;;5078242;28;20025;-80
2021/05/09 13:22:40;;;;;;;10.18;3.53;;;;;;;;;;5078110;28;20052;-76
2021/05/09 13:25:06;;;;;;;4.78;2.47;;;;;;;;;;5078254;28;20055;-76
2021/05/09 13:27:32;;;;;;;8.95;3.70;;;;;;;;;;5078072;28;20028;-76
2021/05/09 13:29:59;;;;;;;2.80;1.92;;;;;;;;;;5077025;28;20377;-76
2021/05/09 13:32:26;;;;;;;4.38;1.63;;;;;;;;;;5077168;28;20044;-76
2021/05/09 13:34:52;;;;;;;3.38;2.20;;;;;;;;;;5077846;28;20044;-76
2021/05/09 13:37:19;;;;;;;6.05;2.38;;;;;;;;;;5078040;28;20052;-77
2021/05/09 13:39:45;;;;;;;30.95;17.48;;;;;;;;;;5077733;28;20103;-76
2021/05/09 13:42:11;;;;;;;16.10;9.82;;;;;;;;;;5077706;28;20028;-76
2021/05/09 13:44:37;;;;;;;32.58;21.35;;;;;;;;;;5077645;28;20047;-76
2021/05/09 13:47:03;;;;;;;17.67;11.43;;;;;;;;;;5076522;28;20108;-76
2021/05/09 13:49:29;;;;;;;27.92;18.92;;;;;;;;;;5077382;28;20024;-76
2021/05/09 13:51:56;;;;;;;35.47;22.92;;;;;;;;;;5077676;28;20024;-76
2021/05/09 13:54:22;;;;;;;33.92;23.33;;;;;;;;;;5077442;28;20075;-76
2021/05/09 13:56:48;;;;;;;17.98;13.50;;;;;;;;;;5077446;28;20024;-77
2021/05/09 13:59:14;;;;;;;9.57;6.55;;;;;;;;;;5077353;28;20021;-77
2021/05/09 14:01:40;;;;;;;12.38;8.02;;;;;;;;;;5077235;28;20020;-77
2021/05/09 14:04:12;;;;;;;7.25;4.35;;;;;;;;;;5077513;28;20306;-77
2021/05/09 14:06:38;;;;;;;6.53;3.92;;;;;;;;;;5077022;28;20048;-77
2021/05/09 14:09:05;;;;;;;11.82;8.20;;;;;;;;;;5077145;28;20028;-77
2021/05/09 14:11:32;;;;;;;5.60;3.85;;;;;;;;;;5077236;28;20457;-77
2021/05/09 14:13:58;;;;;;;3.33;2.53;;;;;;;;;;5077275;28;20028;-77
2021/05/09 14:16:25;;;;;;;2.92;2.40;;;;;;;;;;5077460;28;20020;-77
2021/05/09 14:18:53;;;;;;;5.38;3.47;;;;;;;;;;5077219;28;20311;-76
2021/05/09 14:21:20;;;;;;;5.40;2.50;;;;;;;;;;5077044;28;20052;-77
2021/05/09 14:23:46;;;;;;;6.53;3.00;;;;;;;;;;5077172;28;20031;-77
2021/05/09 14:26:12;;;;;;;5.80;1.50;;;;;;;;;;5077111;28;20028;-77
2021/05/09 14:28:38;;;;;;;6.20;2.00;;;;;;;;;;5077042;28;20025;-76
2021/05/09 14:31:04;;;;;;;5.97;2.70;;;;;;;;;;5076094;28;20064;-76